sensor_id;sensor_type;location;lat;lon;timestamp;P1;durP1;ratioP1;P2;durP2;ratioP2
61531;SDS011;47397;48.194;11.632;2022-09-17T00:00:18;5.20;;;3.55;;
61531;SDS011;47397;48.194;11.632;2022-09-17T00:01:21;4.35;;;3.55;;
61531;SDS011;47397;48.194;11.632;2022-09-17T00:02:23;5.10;;;3.30;;
61531;SDS011;47397;48.194;11.632;2022-09-17T00:03:23;3.90;;;3.42;;
61531;SDS011;47397;48.194;11.632;2022-09-17T00:04:24;6.50;;;3.80;;
61531;SDS011;47397;48.194;11.632;2022-09-17T00:05:24;4.18;;;3.40;;
61531;SDS011;47397;48.194;11.632;2022-09-17T00:06:25;4.70;;;3.10;;
61531;SDS011;47397;48.194;11.632;2022-09-17T00:07:27;4.40;;;3.08;;
61531;SDS011;47397;48.194;11.632;2022-09-17T00:08:30;4.13;;;3.40;;
61531;SDS011;47397;48.194;11.632;2022-09-17T00:09:31;4.20;;;3.35;;
61531;SDS011;47397;48.194;11.632;2022-09-17T00:10:32;4.13;;;3.47;;
61531;SDS011;47397;48.194;11.632;2022-09-17T00:11:37;4.68;;;3.42;;
61531;SDS011;47397;48.194;11.632;2022-09-17T00:12:39;4.53;;;3.42;;
61531;SDS011;47397;48.194;11.632;2022-09-17T00:13:40;5.20;;;3.10;;
61531;SDS011;47397;48.194;11.632;2022-09-17T00:14:41;3.65;;;3.22;;
61531;SDS011;47397;48.194;11.632;2022-09-17T00:15:42;5.03;;;3.40;;
61531;SDS011;47397;48.194;11.632;2022-09-17T00:16:45;4.45;;;3.20;;
61531;SDS011;47397;48.194;11.632;2022-09-17T00:17:47;4.00;;;3.20;;
61531;SDS011;47397;48.194;11.632;2022-09-17T00:18:53;3.92;;;3.20;;
61531;SDS011;47397;48.194;11.632;2022-09-17T00:19:54;5.28;;;3.25;;
61531;SDS011;47397;48.194;11.632;2022-09-17T00:20:54;4.95;;;3.28;;
61531;SDS011;47397;48.194;11.632;2022-09-17T00:21:54;4.25;;;3.22;;
61531;SDS011;47397;48.194;11.632;2022-09-17T00:22:55;5.47;;;3.00;;
61531;SDS011;47397;48.194;11.632;2022-09-17T00:23:57;4.32;;;3.00;;
61531;SDS011;47397;48.194;11.632;2022-09-17T00:25:00;5.53;;;3.15;;
61531;SDS011;47397;48.194;11.632;2022-09-17T00:26:03;4.07;;;3.30;;
61531;SDS011;47397;48.194;11.632;2022-09-17T00:27:04;5.82;;;3.15;;
61531;SDS011;47397;48.194;11.632;2022-09-17T00:28:04;3.70;;;3.10;;
61531;SDS011;47397;48.194;11.632;2022-09-17T00:29:05;4.47;;;3.10;;
61531;SDS011;47397;48.194;11.632;2022-09-17T00:30:07;4.63;;;3.33;;
61531;SDS011;47397;48.194;11.632;2022-09-17T00:31:10;3.58;;;2.80;;
61531;SDS011;47397;48.194;11.632;2022-09-17T00:32:13;4.28;;;2.92;;
61531;SDS011;47397;48.194;11.632;2022-09-17T00:33:14;4.03;;;2.80;;
61531;SDS011;47397;48.194;11.632;2022-09-17T00:34:16;5.95;;;3.20;;
61531;SDS011;47397;48.194;11.632;2022-09-17T00:35:17;3.45;;;2.53;;
61531;SDS011;47397;48.194;11.632;2022-09-17T00:36:17;4.57;;;2.50;;
61531;SDS011;47397;48.194;11.632;2022-09-17T00:37:18;3.25;;;2.20;;
61531;SDS011;47397;48.194;11.632;2022-09-17T00:38:19;5.13;;;2.67;;
61531;SDS011;47397;48.194;11.632;2022-09-17T00:39:20;2.85;;;2.15;;
61531;SDS011;47397;48.194;11.632;2022-09-17T00:40:21;5.15;;;2.33;;
61531;SDS011;47397;48.194;11.632;2022-09-17T00:41:22;3.38;;;2.38;;
61531;SDS011;47397;48.194;11.632;2022-09-17T00:42:23;3.22;;;1.92;;
61531;SDS011;47397;48.194;11.632;2022-09-17T00:43:34;4.50;;;2.30;;
61531;SDS011;47397;48.194;11.632;2022-09-17T00:44:44;3.17;;;2.20;;
61531;SDS011;47397;48.194;11.632;2022-09-17T00:45:47;3.60;;;2.40;;
61531;SDS011;47397;48.194;11.632;2022-09-17T00:46:48;3.55;;;2.42;;
61531;SDS011;47397;48.194;11.632;2022-09-17T00:47:50;4.25;;;2.03;;
61531;SDS011;47397;48.194;11.632;2022-09-17T00:48:56;3.08;;;2.00;;
61531;SDS011;47397;48.194;11.632;2022-09-17T00:50:00;3.33;;;2.15;;
61531;SDS011;47397;48.194;11.632;2022-09-17T00:51:02;3.53;;;2.25;;
61531;SDS011;47397;48.194;11.632;2022-09-17T00:52:07;3.85;;;1.88;;
61531;SDS011;47397;48.194;11.632;2022-09-17T00:53:11;2.88;;;2.08;;
61531;SDS011;47397;48.194;11.632;2022-09-17T00:54:13;2.72;;;1.80;;
61531;SDS011;47397;48.194;11.632;2022-09-17T00:55:17;3.40;;;1.80;;
61531;SDS011;47397;48.194;11.632;2022-09-17T00:56:21;1.95;;;1.45;;
61531;SDS011;47397;48.194;11.632;2022-09-17T00:57:24;2.72;;;1.90;;
61531;SDS011;47397;48.194;11.632;2022-09-17T00:58:25;2.35;;;1.55;;
61531;SDS011;47397;48.194;11.632;2022-09-17T00:59:27;3.05;;;1.70;;
61531;SDS011;47397;48.194;11.632;2022-09-17T01:00:30;2.50;;;1.70;;
61531;SDS011;47397;48.194;11.632;2022-09-17T01:01:31;2.42;;;1.50;;
61531;SDS011;47397;48.194;11.632;2022-09-17T01:02:32;2.10;;;1.70;;
61531;SDS011;47397;48.194;11.632;2022-09-17T01:03:33;2.95;;;1.60;;
61531;SDS011;47397;48.194;11.632;2022-09-17T01:04:34;2.22;;;1.52;;
61531;SDS011;47397;48.194;11.632;2022-09-17T01:05:36;2.72;;;1.50;;
61531;SDS011;47397;48.194;11.632;2022-09-17T01:06:43;2.60;;;1.50;;
61531;SDS011;47397;48.194;11.632;2022-09-17T01:08:00;2.47;;;1.48;;
61531;SDS011;47397;48.194;11.632;2022-09-17T01:09:11;2.15;;;1.58;;
61531;SDS011;47397;48.194;11.632;2022-09-17T01:10:26;2.03;;;1.45;;
61531;SDS011;47397;48.194;11.632;2022-09-17T01:11:52;2.97;;;1.40;;
61531;SDS011;47397;48.194;11.632;2022-09-17T01:13:05;2.30;;;1.52;;
61531;SDS011;47397;48.194;11.632;2022-09-17T01:14:18;3.05;;;1.38;;
61531;SDS011;47397;48.194;11.632;2022-09-17T01:15:32;3.20;;;1.73;;
61531;SDS011;47397;48.194;11.632;2022-09-17T01:16:39;1.98;;;1.50;;
61531;SDS011;47397;48.194;11.632;2022-09-17T01:17:50;2.50;;;1.65;;
61531;SDS011;47397;48.194;11.632;2022-09-17T01:19:05;3.08;;;1.70;;
61531;SDS011;47397;48.194;11.632;2022-09-17T01:22:07;4.40;;;1.75;;
61531;SDS011;47397;48.194;11.632;2022-09-17T01:23:26;2.45;;;1.83;;
61531;SDS011;47397;48.194;11.632;2022-09-17T01:24:45;3.10;;;1.65;;
61531;SDS011;47397;48.194;11.632;2022-09-17T01:25:52;3.72;;;1.60;;
61531;SDS011;47397;48.194;11.632;2022-09-17T01:27:11;2.38;;;1.60;;
61531;SDS011;47397;48.194;11.632;2022-09-17T01:28:37;2.33;;;1.42;;
61531;SDS011;47397;48.194;11.632;2022-09-17T01:29:49;3.00;;;1.73;;
61531;SDS011;47397;48.194;11.632;2022-09-17T01:31:07;2.07;;;1.40;;
61531;SDS011;47397;48.194;11.632;2022-09-17T01:32:29;4.40;;;1.98;;
61531;SDS011;47397;48.194;11.632;2022-09-17T01:33:38;2.67;;;1.80;;
61531;SDS011;47397;48.194;11.632;2022-09-17T01:34:43;2.20;;;1.65;;
61531;SDS011;47397;48.194;11.632;2022-09-17T01:35:51;2.53;;;1.75;;
61531;SDS011;47397;48.194;11.632;2022-09-17T01:37:02;3.13;;;1.70;;
61531;SDS011;47397;48.194;11.632;2022-09-17T01:38:08;3.10;;;1.80;;
61531;SDS011;47397;48.194;11.632;2022-09-17T01:39:15;2.20;;;1.60;;
61531;SDS011;47397;48.194;11.632;2022-09-17T01:40:25;2.85;;;1.80;;
61531;SDS011;47397;48.194;11.632;2022-09-17T01:41:30;2.95;;;1.60;;
61531;SDS011;47397;48.194;11.632;2022-09-17T01:42:41;2.80;;;2.00;;
61531;SDS011;47397;48.194;11.632;2022-09-17T01:43:50;3.85;;;1.90;;
61531;SDS011;47397;48.194;11.632;2022-09-17T01:44:54;3.55;;;1.60;;
61531;SDS011;47397;48.194;11.632;2022-09-17T01:46:02;2.90;;;1.70;;
61531;SDS011;47397;48.194;11.632;2022-09-17T01:47:08;3.10;;;1.83;;
61531;SDS011;47397;48.194;11.632;2022-09-17T01:48:13;2.50;;;1.60;;
61531;SDS011;47397;48.194;11.632;2022-09-17T01:49:16;2.00;;;1.60;;
61531;SDS011;47397;48.194;11.632;2022-09-17T01:50:19;2.25;;;1.73;;
61531;SDS011;47397;48.194;11.632;2022-09-17T01:51:22;2.90;;;1.75;;
61531;SDS011;47397;48.194;11.632;2022-09-17T01:52:25;2.50;;;1.52;;
61531;SDS011;47397;48.194;11.632;2022-09-17T01:53:29;3.15;;;1.75;;
61531;SDS011;47397;48.194;11.632;2022-09-17T01:54:34;2.33;;;1.70;;
61531;SDS011;47397;48.194;11.632;2022-09-17T01:55:39;2.35;;;1.80;;
61531;SDS011;47397;48.194;11.632;2022-09-17T01:56:43;2.28;;;1.60;;
61531;SDS011;47397;48.194;11.632;2022-09-17T01:57:48;2.65;;;1.70;;
61531;SDS011;47397;48.194;11.632;2022-09-17T01:58:52;2.92;;;1.95;;
61531;SDS011;47397;48.194;11.632;2022-09-17T01:59:59;4.60;;;2.03;;
61531;SDS011;47397;48.194;11.632;2022-09-17T02:01:03;2.97;;;1.70;;
61531;SDS011;47397;48.194;11.632;2022-09-17T02:02:09;2.65;;;2.00;;
61531;SDS011;47397;48.194;11.632;2022-09-17T02:03:14;2.60;;;1.70;;
61531;SDS011;47397;48.194;11.632;2022-09-17T02:04:19;2.97;;;1.95;;
61531;SDS011;47397;48.194;11.632;2022-09-17T02:05:26;3.28;;;1.80;;
61531;SDS011;47397;48.194;11.632;2022-09-17T02:06:29;2.75;;;1.98;;
61531;SDS011;47397;48.194;11.632;2022-09-17T02:07:36;2.95;;;1.77;;
61531;SDS011;47397;48.194;11.632;2022-09-17T02:08:44;2.40;;;1.50;;
61531;SDS011;47397;48.194;11.632;2022-09-17T02:09:49;4.25;;;1.90;;
61531;SDS011;47397;48.194;11.632;2022-09-17T02:10:55;2.85;;;1.90;;
61531;SDS011;47397;48.194;11.632;2022-09-17T02:11:58;2.53;;;1.98;;
61531;SDS011;47397;48.194;11.632;2022-09-17T02:13:04;2.45;;;1.80;;
61531;SDS011;47397;48.194;11.632;2022-09-17T02:14:09;2.92;;;1.70;;
61531;SDS011;47397;48.194;11.632;2022-09-17T02:15:14;3.10;;;1.70;;
61531;SDS011;47397;48.194;11.632;2022-09-17T02:16:21;3.33;;;1.80;;
61531;SDS011;47397;48.194;11.632;2022-09-17T02:17:28;2.00;;;1.33;;
61531;SDS011;47397;48.194;11.632;2022-09-17T02:18:35;2.40;;;1.65;;
61531;SDS011;47397;48.194;11.632;2022-09-17T02:19:38;3.15;;;1.50;;
61531;SDS011;47397;48.194;11.632;2022-09-17T02:20:41;3.08;;;1.73;;
61531;SDS011;47397;48.194;11.632;2022-09-17T02:21:45;2.00;;;1.50;;
61531;SDS011;47397;48.194;11.632;2022-09-17T02:22:49;2.20;;;1.50;;
61531;SDS011;47397;48.194;11.632;2022-09-17T02:23:56;3.00;;;1.50;;
61531;SDS011;47397;48.194;11.632;2022-09-17T02:25:07;2.72;;;1.80;;
61531;SDS011;47397;48.194;11.632;2022-09-17T02:26:14;2.35;;;1.60;;
61531;SDS011;47397;48.194;11.632;2022-09-17T02:27:19;2.83;;;1.60;;
61531;SDS011;47397;48.194;11.632;2022-09-17T02:28:26;2.53;;;1.63;;
61531;SDS011;47397;48.194;11.632;2022-09-17T02:29:34;2.80;;;1.60;;
61531;SDS011;47397;48.194;11.632;2022-09-17T02:30:37;2.60;;;1.50;;
61531;SDS011;47397;48.194;11.632;2022-09-17T02:31:38;2.85;;;1.73;;
61531;SDS011;47397;48.194;11.632;2022-09-17T02:32:40;2.75;;;1.63;;
61531;SDS011;47397;48.194;11.632;2022-09-17T02:33:42;2.53;;;1.75;;
61531;SDS011;47397;48.194;11.632;2022-09-17T02:34:47;2.92;;;1.90;;
61531;SDS011;47397;48.194;11.632;2022-09-17T02:35:48;2.20;;;1.58;;
61531;SDS011;47397;48.194;11.632;2022-09-17T02:36:49;2.58;;;1.40;;
61531;SDS011;47397;48.194;11.632;2022-09-17T02:37:50;2.70;;;1.60;;
61531;SDS011;47397;48.194;11.632;2022-09-17T02:38:53;2.30;;;1.67;;
61531;SDS011;47397;48.194;11.632;2022-09-17T02:39:58;2.72;;;1.52;;
61531;SDS011;47397;48.194;11.632;2022-09-17T02:41:00;2.85;;;1.67;;
61531;SDS011;47397;48.194;11.632;2022-09-17T02:42:07;2.00;;;1.42;;
61531;SDS011;47397;48.194;11.632;2022-09-17T02:43:18;2.30;;;1.40;;
61531;SDS011;47397;48.194;11.632;2022-09-17T02:44:26;2.13;;;1.50;;
61531;SDS011;47397;48.194;11.632;2022-09-17T02:45:34;2.55;;;1.42;;
61531;SDS011;47397;48.194;11.632;2022-09-17T02:46:57;2.60;;;1.85;;
61531;SDS011;47397;48.194;11.632;2022-09-17T02:49:33;1.98;;;1.52;;
61531;SDS011;47397;48.194;11.632;2022-09-17T02:50:54;2.55;;;1.35;;
61531;SDS011;47397;48.194;11.632;2022-09-17T02:52:05;4.00;;;1.40;;
61531;SDS011;47397;48.194;11.632;2022-09-17T02:53:19;2.00;;;1.50;;
61531;SDS011;47397;48.194;11.632;2022-09-17T02:54:35;3.50;;;1.50;;
61531;SDS011;47397;48.194;11.632;2022-09-17T02:55:41;6.85;;;1.65;;
61531;SDS011;47397;48.194;11.632;2022-09-17T02:56:50;2.20;;;1.55;;
61531;SDS011;47397;48.194;11.632;2022-09-17T02:57:59;3.25;;;1.60;;
61531;SDS011;47397;48.194;11.632;2022-09-17T02:59:10;2.83;;;1.40;;
61531;SDS011;47397;48.194;11.632;2022-09-17T03:00:17;2.50;;;1.27;;
61531;SDS011;47397;48.194;11.632;2022-09-17T03:01:21;2.55;;;1.35;;
61531;SDS011;47397;48.194;11.632;2022-09-17T03:02:27;2.90;;;1.42;;
61531;SDS011;47397;48.194;11.632;2022-09-17T03:03:33;2.65;;;1.42;;
61531;SDS011;47397;48.194;11.632;2022-09-17T03:04:36;2.85;;;1.40;;
61531;SDS011;47397;48.194;11.632;2022-09-17T03:05:38;2.42;;;1.30;;
61531;SDS011;47397;48.194;11.632;2022-09-17T03:06:41;2.95;;;1.40;;
61531;SDS011;47397;48.194;11.632;2022-09-17T03:07:44;2.35;;;1.17;;
61531;SDS011;47397;48.194;11.632;2022-09-17T03:08:44;1.85;;;1.23;;
61531;SDS011;47397;48.194;11.632;2022-09-17T03:09:45;2.08;;;1.38;;
61531;SDS011;47397;48.194;11.632;2022-09-17T03:10:46;2.17;;;1.30;;
61531;SDS011;47397;48.194;11.632;2022-09-17T03:11:46;1.95;;;1.30;;
61531;SDS011;47397;48.194;11.632;2022-09-17T03:12:47;1.90;;;1.30;;
61531;SDS011;47397;48.194;11.632;2022-09-17T03:13:48;2.00;;;1.20;;
61531;SDS011;47397;48.194;11.632;2022-09-17T03:14:48;1.92;;;1.27;;
61531;SDS011;47397;48.194;11.632;2022-09-17T03:15:49;1.88;;;1.30;;
61531;SDS011;47397;48.194;11.632;2022-09-17T03:16:49;2.83;;;1.52;;
61531;SDS011;47397;48.194;11.632;2022-09-17T03:17:50;1.80;;;1.20;;
61531;SDS011;47397;48.194;11.632;2022-09-17T03:18:52;2.20;;;1.17;;
61531;SDS011;47397;48.194;11.632;2022-09-17T03:19:52;2.00;;;1.38;;
61531;SDS011;47397;48.194;11.632;2022-09-17T03:20:53;2.53;;;1.40;;
61531;SDS011;47397;48.194;11.632;2022-09-17T03:21:53;2.05;;;1.30;;
61531;SDS011;47397;48.194;11.632;2022-09-17T03:22:54;2.38;;;1.38;;
61531;SDS011;47397;48.194;11.632;2022-09-17T03:23:54;2.00;;;1.35;;
61531;SDS011;47397;48.194;11.632;2022-09-17T03:24:55;2.10;;;1.33;;
61531;SDS011;47397;48.194;11.632;2022-09-17T03:25:55;1.90;;;1.45;;
61531;SDS011;47397;48.194;11.632;2022-09-17T03:26:55;2.10;;;1.30;;
61531;SDS011;47397;48.194;11.632;2022-09-17T03:27:56;2.05;;;1.20;;
61531;SDS011;47397;48.194;11.632;2022-09-17T03:28:56;1.80;;;1.27;;
61531;SDS011;47397;48.194;11.632;2022-09-17T03:29:57;3.28;;;1.50;;
61531;SDS011;47397;48.194;11.632;2022-09-17T03:30:57;6.22;;;1.35;;
61531;SDS011;47397;48.194;11.632;2022-09-17T03:31:58;2.53;;;1.30;;
61531;SDS011;47397;48.194;11.632;2022-09-17T03:32:58;2.78;;;1.35;;
61531;SDS011;47397;48.194;11.632;2022-09-17T03:34:00;1.73;;;1.30;;
61531;SDS011;47397;48.194;11.632;2022-09-17T03:35:01;2.38;;;1.20;;
61531;SDS011;47397;48.194;11.632;2022-09-17T03:36:01;2.78;;;1.48;;
61531;SDS011;47397;48.194;11.632;2022-09-17T03:37:02;2.03;;;1.25;;
61531;SDS011;47397;48.194;11.632;2022-09-17T03:38:02;2.47;;;1.30;;
61531;SDS011;47397;48.194;11.632;2022-09-17T03:39:05;2.53;;;1.30;;
61531;SDS011;47397;48.194;11.632;2022-09-17T03:40:06;2.58;;;1.30;;
61531;SDS011;47397;48.194;11.632;2022-09-17T03:41:07;2.35;;;1.30;;
61531;SDS011;47397;48.194;11.632;2022-09-17T03:42:08;2.78;;;1.30;;
61531;SDS011;47397;48.194;11.632;2022-09-17T03:43:08;3.22;;;1.10;;
61531;SDS011;47397;48.194;11.632;2022-09-17T03:44:09;2.20;;;1.10;;
61531;SDS011;47397;48.194;11.632;2022-09-17T03:45:09;2.10;;;1.10;;
61531;SDS011;47397;48.194;11.632;2022-09-17T03:46:10;1.95;;;1.20;;
61531;SDS011;47397;48.194;11.632;2022-09-17T03:47:11;1.95;;;1.10;;
61531;SDS011;47397;48.194;11.632;2022-09-17T03:48:11;2.35;;;1.02;;
61531;SDS011;47397;48.194;11.632;2022-09-17T03:49:13;1.92;;;1.10;;
61531;SDS011;47397;48.194;11.632;2022-09-17T03:50:13;2.75;;;1.35;;
61531;SDS011;47397;48.194;11.632;2022-09-17T03:51:14;2.58;;;1.20;;
61531;SDS011;47397;48.194;11.632;2022-09-17T03:52:14;2.35;;;0.98;;
61531;SDS011;47397;48.194;11.632;2022-09-17T03:53:15;3.33;;;1.20;;
61531;SDS011;47397;48.194;11.632;2022-09-17T03:54:16;2.35;;;1.10;;
61531;SDS011;47397;48.194;11.632;2022-09-17T03:55:17;2.85;;;1.40;;
61531;SDS011;47397;48.194;11.632;2022-09-17T03:56:17;2.45;;;1.25;;
61531;SDS011;47397;48.194;11.632;2022-09-17T03:57:18;2.28;;;1.17;;
61531;SDS011;47397;48.194;11.632;2022-09-17T03:58:19;1.90;;;1.20;;
61531;SDS011;47397;48.194;11.632;2022-09-17T03:59:20;3.63;;;1.15;;
61531;SDS011;47397;48.194;11.632;2022-09-17T04:00:21;2.03;;;1.00;;
61531;SDS011;47397;48.194;11.632;2022-09-17T04:01:21;2.55;;;1.27;;
61531;SDS011;47397;48.194;11.632;2022-09-17T04:02:21;4.32;;;1.33;;
61531;SDS011;47397;48.194;11.632;2022-09-17T04:03:23;1.67;;;1.00;;
61531;SDS011;47397;48.194;11.632;2022-09-17T04:04:25;2.13;;;1.33;;
61531;SDS011;47397;48.194;11.632;2022-09-17T04:05:25;2.97;;;1.40;;
61531;SDS011;47397;48.194;11.632;2022-09-17T04:06:26;2.90;;;1.45;;
61531;SDS011;47397;48.194;11.632;2022-09-17T04:07:26;2.40;;;1.33;;
61531;SDS011;47397;48.194;11.632;2022-09-17T04:08:27;2.03;;;1.20;;
61531;SDS011;47397;48.194;11.632;2022-09-17T04:09:27;2.85;;;1.27;;
61531;SDS011;47397;48.194;11.632;2022-09-17T04:10:28;2.80;;;1.20;;
61531;SDS011;47397;48.194;11.632;2022-09-17T04:11:28;2.95;;;1.15;;
61531;SDS011;47397;48.194;11.632;2022-09-17T04:12:29;3.17;;;1.40;;
61531;SDS011;47397;48.194;11.632;2022-09-17T04:13:29;1.60;;;1.20;;
61531;SDS011;47397;48.194;11.632;2022-09-17T04:14:30;2.20;;;1.15;;
61531;SDS011;47397;48.194;11.632;2022-09-17T04:15:30;2.20;;;1.20;;
61531;SDS011;47397;48.194;11.632;2022-09-17T04:16:31;3.10;;;1.30;;
61531;SDS011;47397;48.194;11.632;2022-09-17T04:17:31;1.40;;;1.00;;
61531;SDS011;47397;48.194;11.632;2022-09-17T04:18:32;2.30;;;1.20;;
61531;SDS011;47397;48.194;11.632;2022-09-17T04:19:34;2.33;;;1.20;;
61531;SDS011;47397;48.194;11.632;2022-09-17T04:20:34;1.75;;;1.20;;
61531;SDS011;47397;48.194;11.632;2022-09-17T04:21:35;3.80;;;1.52;;
61531;SDS011;47397;48.194;11.632;2022-09-17T04:22:35;2.55;;;1.30;;
61531;SDS011;47397;48.194;11.632;2022-09-17T04:23:36;3.33;;;1.30;;
61531;SDS011;47397;48.194;11.632;2022-09-17T04:24:36;4.43;;;1.40;;
61531;SDS011;47397;48.194;11.632;2022-09-17T04:25:37;1.70;;;1.13;;
61531;SDS011;47397;48.194;11.632;2022-09-17T04:26:37;2.25;;;1.20;;
61531;SDS011;47397;48.194;11.632;2022-09-17T04:27:38;3.35;;;1.40;;
61531;SDS011;47397;48.194;11.632;2022-09-17T04:28:38;2.47;;;1.10;;
61531;SDS011;47397;48.194;11.632;2022-09-17T04:29:39;1.85;;;1.13;;
61531;SDS011;47397;48.194;11.632;2022-09-17T04:30:39;2.33;;;1.30;;
61531;SDS011;47397;48.194;11.632;2022-09-17T04:31:39;2.22;;;1.38;;
61531;SDS011;47397;48.194;11.632;2022-09-17T04:32:40;1.55;;;1.08;;
61531;SDS011;47397;48.194;11.632;2022-09-17T04:33:42;2.60;;;1.30;;
61531;SDS011;47397;48.194;11.632;2022-09-17T04:34:44;3.25;;;1.50;;
61531;SDS011;47397;48.194;11.632;2022-09-17T04:35:44;2.20;;;1.20;;
61531;SDS011;47397;48.194;11.632;2022-09-17T04:36:45;2.20;;;1.33;;
61531;SDS011;47397;48.194;11.632;2022-09-17T04:37:50;2.83;;;1.50;;
61531;SDS011;47397;48.194;11.632;2022-09-17T04:38:51;2.92;;;1.20;;
61531;SDS011;47397;48.194;11.632;2022-09-17T04:39:52;2.42;;;1.20;;
61531;SDS011;47397;48.194;11.632;2022-09-17T04:40:52;3.17;;;1.38;;
61531;SDS011;47397;48.194;11.632;2022-09-17T04:41:52;4.65;;;1.42;;
61531;SDS011;47397;48.194;11.632;2022-09-17T04:42:54;2.13;;;1.30;;
61531;SDS011;47397;48.194;11.632;2022-09-17T04:43:55;2.17;;;1.35;;
61531;SDS011;47397;48.194;11.632;2022-09-17T04:44:56;2.20;;;1.30;;
61531;SDS011;47397;48.194;11.632;2022-09-17T04:45:56;3.42;;;1.50;;
61531;SDS011;47397;48.194;11.632;2022-09-17T04:46:57;2.35;;;1.30;;
61531;SDS011;47397;48.194;11.632;2022-09-17T04:47:57;2.60;;;1.35;;
61531;SDS011;47397;48.194;11.632;2022-09-17T04:48:58;3.03;;;1.35;;
61531;SDS011;47397;48.194;11.632;2022-09-17T04:50:00;2.92;;;1.35;;
61531;SDS011;47397;48.194;11.632;2022-09-17T04:51:00;2.60;;;1.35;;
61531;SDS011;47397;48.194;11.632;2022-09-17T04:52:01;2.30;;;1.15;;
61531;SDS011;47397;48.194;11.632;2022-09-17T04:53:02;2.20;;;1.20;;
61531;SDS011;47397;48.194;11.632;2022-09-17T04:54:03;1.90;;;1.20;;
61531;SDS011;47397;48.194;11.632;2022-09-17T04:55:04;2.58;;;1.35;;
61531;SDS011;47397;48.194;11.632;2022-09-17T04:56:06;2.00;;;1.40;;
61531;SDS011;47397;48.194;11.632;2022-09-17T04:57:06;2.85;;;1.48;;
61531;SDS011;47397;48.194;11.632;2022-09-17T04:58:07;2.33;;;1.60;;
61531;SDS011;47397;48.194;11.632;2022-09-17T04:59:08;1.50;;;1.20;;
61531;SDS011;47397;48.194;11.632;2022-09-17T05:00:09;3.63;;;1.63;;
61531;SDS011;47397;48.194;11.632;2022-09-17T05:01:10;2.47;;;1.50;;
61531;SDS011;47397;48.194;11.632;2022-09-17T05:02:10;3.78;;;1.38;;
61531;SDS011;47397;48.194;11.632;2022-09-17T05:03:11;2.08;;;1.40;;
61531;SDS011;47397;48.194;11.632;2022-09-17T05:04:11;3.38;;;1.30;;
61531;SDS011;47397;48.194;11.632;2022-09-17T05:05:13;3.65;;;1.30;;
61531;SDS011;47397;48.194;11.632;2022-09-17T05:06:15;3.38;;;1.30;;
61531;SDS011;47397;48.194;11.632;2022-09-17T05:07:15;2.40;;;1.20;;
61531;SDS011;47397;48.194;11.632;2022-09-17T05:08:16;2.50;;;1.52;;
61531;SDS011;47397;48.194;11.632;2022-09-17T05:09:16;3.92;;;1.63;;
61531;SDS011;47397;48.194;11.632;2022-09-17T05:10:17;2.42;;;1.20;;
61531;SDS011;47397;48.194;11.632;2022-09-17T05:11:19;2.58;;;1.20;;
61531;SDS011;47397;48.194;11.632;2022-09-17T05:12:20;2.58;;;1.23;;
61531;SDS011;47397;48.194;11.632;2022-09-17T05:13:20;2.75;;;1.17;;
61531;SDS011;47397;48.194;11.632;2022-09-17T05:14:21;1.90;;;1.30;;
61531;SDS011;47397;48.194;11.632;2022-09-17T05:15:22;2.15;;;1.10;;
61531;SDS011;47397;48.194;11.632;2022-09-17T05:16:24;2.25;;;1.20;;
61531;SDS011;47397;48.194;11.632;2022-09-17T05:17:24;2.47;;;1.30;;
61531;SDS011;47397;48.194;11.632;2022-09-17T05:18:25;3.55;;;1.45;;
61531;SDS011;47397;48.194;11.632;2022-09-17T05:19:25;2.25;;;1.27;;
61531;SDS011;47397;48.194;11.632;2022-09-17T05:20:27;2.67;;;1.30;;
61531;SDS011;47397;48.194;11.632;2022-09-17T05:21:27;2.63;;;1.20;;
61531;SDS011;47397;48.194;11.632;2022-09-17T05:22:28;3.65;;;1.30;;
61531;SDS011;47397;48.194;11.632;2022-09-17T05:23:28;2.65;;;1.33;;
61531;SDS011;47397;48.194;11.632;2022-09-17T05:24:29;3.47;;;1.50;;
61531;SDS011;47397;48.194;11.632;2022-09-17T05:25:29;1.60;;;1.20;;
61531;SDS011;47397;48.194;11.632;2022-09-17T05:26:29;2.00;;;1.20;;
61531;SDS011;47397;48.194;11.632;2022-09-17T05:27:30;3.15;;;1.45;;
61531;SDS011;47397;48.194;11.632;2022-09-17T05:28:32;2.38;;;1.20;;
61531;SDS011;47397;48.194;11.632;2022-09-17T05:29:33;2.42;;;1.48;;
61531;SDS011;47397;48.194;11.632;2022-09-17T05:30:33;3.13;;;1.48;;
61531;SDS011;47397;48.194;11.632;2022-09-17T05:31:34;2.72;;;1.50;;
61531;SDS011;47397;48.194;11.632;2022-09-17T05:32:35;3.20;;;1.50;;
61531;SDS011;47397;48.194;11.632;2022-09-17T05:33:35;2.42;;;1.58;;
61531;SDS011;47397;48.194;11.632;2022-09-17T05:34:36;2.63;;;1.70;;
61531;SDS011;47397;48.194;11.632;2022-09-17T05:35:38;3.35;;;1.70;;
61531;SDS011;47397;48.194;11.632;2022-09-17T05:36:39;3.22;;;1.70;;
61531;SDS011;47397;48.194;11.632;2022-09-17T05:37:41;3.00;;;1.35;;
61531;SDS011;47397;48.194;11.632;2022-09-17T05:38:41;2.42;;;1.40;;
61531;SDS011;47397;48.194;11.632;2022-09-17T05:39:42;2.70;;;1.17;;
61531;SDS011;47397;48.194;11.632;2022-09-17T05:40:42;2.58;;;1.30;;
61531;SDS011;47397;48.194;11.632;2022-09-17T05:41:43;1.90;;;1.30;;
61531;SDS011;47397;48.194;11.632;2022-09-17T05:42:43;2.33;;;1.40;;
61531;SDS011;47397;48.194;11.632;2022-09-17T05:43:44;3.13;;;1.60;;
61531;SDS011;47397;48.194;11.632;2022-09-17T05:44:44;2.63;;;1.40;;
61531;SDS011;47397;48.194;11.632;2022-09-17T05:45:45;2.78;;;1.27;;
61531;SDS011;47397;48.194;11.632;2022-09-17T05:46:45;2.67;;;1.50;;
61531;SDS011;47397;48.194;11.632;2022-09-17T05:47:47;1.85;;;1.30;;
61531;SDS011;47397;48.194;11.632;2022-09-17T05:48:47;2.90;;;1.55;;
61531;SDS011;47397;48.194;11.632;2022-09-17T05:49:48;2.40;;;1.60;;
61531;SDS011;47397;48.194;11.632;2022-09-17T05:50:50;2.67;;;1.60;;
61531;SDS011;47397;48.194;11.632;2022-09-17T05:51:50;3.22;;;1.40;;
61531;SDS011;47397;48.194;11.632;2022-09-17T05:52:51;3.53;;;1.33;;
61531;SDS011;47397;48.194;11.632;2022-09-17T05:53:53;1.60;;;1.23;;
61531;SDS011;47397;48.194;11.632;2022-09-17T05:54:53;2.05;;;1.30;;
61531;SDS011;47397;48.194;11.632;2022-09-17T05:55:55;2.80;;;1.70;;
61531;SDS011;47397;48.194;11.632;2022-09-17T05:56:55;2.97;;;1.42;;
61531;SDS011;47397;48.194;11.632;2022-09-17T05:57:56;3.47;;;1.85;;
61531;SDS011;47397;48.194;11.632;2022-09-17T05:58:57;1.80;;;1.30;;
61531;SDS011;47397;48.194;11.632;2022-09-17T05:59:58;3.42;;;1.50;;
61531;SDS011;47397;48.194;11.632;2022-09-17T06:00:59;2.75;;;1.75;;
61531;SDS011;47397;48.194;11.632;2022-09-17T06:02:00;2.63;;;1.70;;
61531;SDS011;47397;48.194;11.632;2022-09-17T06:03:00;3.00;;;1.85;;
61531;SDS011;47397;48.194;11.632;2022-09-17T06:04:01;4.43;;;1.50;;
61531;SDS011;47397;48.194;11.632;2022-09-17T06:05:02;2.67;;;1.40;;
61531;SDS011;47397;48.194;11.632;2022-09-17T06:06:04;1.98;;;1.45;;
61531;SDS011;47397;48.194;11.632;2022-09-17T06:07:05;3.42;;;1.40;;
61531;SDS011;47397;48.194;11.632;2022-09-17T06:08:06;3.25;;;1.30;;
61531;SDS011;47397;48.194;11.632;2022-09-17T06:09:07;2.55;;;1.20;;
61531;SDS011;47397;48.194;11.632;2022-09-17T06:10:08;2.90;;;1.63;;
61531;SDS011;47397;48.194;11.632;2022-09-17T06:11:08;3.35;;;1.50;;
61531;SDS011;47397;48.194;11.632;2022-09-17T06:12:09;4.47;;;1.55;;
61531;SDS011;47397;48.194;11.632;2022-09-17T06:13:09;2.47;;;1.25;;
61531;SDS011;47397;48.194;11.632;2022-09-17T06:14:10;3.35;;;1.30;;
61531;SDS011;47397;48.194;11.632;2022-09-17T06:15:10;3.75;;;1.40;;
61531;SDS011;47397;48.194;11.632;2022-09-17T06:16:11;2.30;;;1.38;;
61531;SDS011;47397;48.194;11.632;2022-09-17T06:17:12;4.13;;;1.55;;